createdAt,value
2019-04-11T00:00:33.253Z,-7.55
2019-04-11T00:03:00.602Z,-7.58
2019-04-11T00:05:28.596Z,-7.63
2019-04-11T00:07:57.211Z,-7.68
2019-04-11T00:12:52.091Z,-7.72
2019-04-11T00:15:18.334Z,-7.78
2019-04-11T00:17:45.966Z,-7.85
2019-04-11T00:20:13.106Z,-7.89
2019-04-11T00:22:39.500Z,-7.96
2019-04-11T00:25:05.822Z,-7.98
2019-04-11T00:27:32.969Z,-7.97
2019-04-11T00:30:00.255Z,-7.96
2019-04-11T00:32:27.554Z,-8.71
2019-04-11T00:34:55.315Z,-8.05
2019-04-11T00:37:23.191Z,-8.08
2019-04-11T00:39:52.022Z,-8.07
2019-04-11T00:42:19.138Z,-8.06
2019-04-11T00:44:45.416Z,-8.09
2019-04-11T00:47:11.679Z,-8.13
2019-04-11T00:49:38.764Z,-8.14
2019-04-11T00:52:06.566Z,-8.18
2019-04-11T00:54:33.150Z,-8.24
2019-04-11T00:57:01.317Z,-8.30
2019-04-11T00:59:27.593Z,-8.36
2019-04-11T01:01:53.841Z,-8.40
2019-04-11T01:04:20.116Z,-8.46
2019-04-11T01:06:46.717Z,-8.53
2019-04-11T01:09:14.536Z,-8.58
2019-04-11T01:11:40.798Z,-8.63
2019-04-11T01:14:07.861Z,-8.70
2019-04-11T01:19:33.341Z,-8.83
2019-04-11T01:21:59.625Z,-8.88
2019-04-11T01:24:26.319Z,-8.89
2019-04-11T01:26:53.802Z,-8.94
2019-04-11T01:29:20.897Z,-8.97
2019-04-11T01:34:35.032Z,-8.98
2019-04-11T01:37:01.698Z,-9.00
2019-04-11T01:39:49.679Z,-9.02
2019-04-11T01:42:17.449Z,-9.06
2019-04-11T01:44:45.843Z,-9.04
2019-04-11T01:47:46.824Z,-9.07
2019-04-11T01:53:00.876Z,-9.07
2019-04-11T01:55:28.194Z,-9.10
2019-04-11T01:57:55.332Z,-9.14
2019-04-11T02:00:42.042Z,-9.14
2019-04-11T02:03:28.411Z,-9.16
2019-04-11T02:05:54.765Z,-9.18
2019-04-11T02:08:21.044Z,-9.16
2019-04-11T02:10:47.297Z,-9.16
2019-04-11T02:13:13.558Z,-9.18
2019-04-11T02:15:40.742Z,-9.23
2019-04-11T02:18:08.074Z,-9.24
2019-04-11T02:20:34.306Z,-9.29
2019-04-11T02:23:21.450Z,-9.36
2019-04-11T02:26:07.527Z,-9.37
2019-04-11T02:28:34.915Z,-9.42
2019-04-11T02:31:04.579Z,-9.43
2019-04-11T02:33:30.725Z,-9.45
2019-04-11T02:35:57.281Z,-9.45
2019-04-11T02:38:24.547Z,-9.43
2019-04-11T02:40:52.561Z,-9.43
2019-04-11T02:43:20.669Z,-9.41
2019-04-11T02:46:01.090Z,-9.44
2019-04-11T02:48:18.328Z,-9.44
2019-04-11T02:50:45.906Z,-9.46
2019-04-11T02:53:14.737Z,-9.50
2019-04-11T02:55:41.819Z,-9.52
2019-04-11T02:58:10.400Z,-9.55
2019-04-11T03:00:37.933Z,-9.59
2019-04-11T03:03:05.685Z,-9.64
2019-04-11T03:05:34.526Z,-9.66
2019-04-11T03:10:33.613Z,-9.73
2019-04-11T03:13:02.783Z,-9.71
2019-04-11T03:15:43.176Z,-10.45
2019-04-11T03:18:02.033Z,-9.78
2019-04-11T03:20:33.699Z,-9.81
2019-04-11T03:22:59.368Z,-9.80
2019-04-11T03:28:21.028Z,-9.81
2019-04-11T03:31:03.843Z,-9.76
2019-04-11T03:38:33.177Z,-9.70
2019-04-11T03:40:57.667Z,-9.69
2019-04-11T03:43:16.370Z,-9.63
2019-04-11T03:46:16.071Z,-9.59
2019-04-11T03:48:36.890Z,-9.60
2019-04-11T03:50:54.530Z,-9.59
2019-04-11T03:53:20.057Z,-9.60
2019-04-11T03:55:47.571Z,-9.61
2019-04-11T03:58:15.496Z,-9.63
2019-04-11T04:00:44.293Z,-9.63
2019-04-11T04:03:11.286Z,-9.60
2019-04-11T04:05:39.717Z,-9.57
2019-04-11T04:08:08.766Z,-9.55
2019-04-11T04:17:11.043Z,-9.35
2019-04-11T04:24:47.684Z,-9.08
2019-04-11T04:27:36.035Z,-8.97
2019-04-11T04:30:27.675Z,-8.88
2019-04-11T04:32:54.555Z,-8.77
2019-04-11T04:35:23.580Z,-8.63
2019-04-11T04:37:51.679Z,-8.53
2019-04-11T04:40:36.036Z,-8.41
2019-04-11T04:43:08.184Z,-8.27
2019-04-11T04:45:55.166Z,-8.06
2019-04-11T04:48:07.834Z,-7.83
2019-04-11T04:50:31.115Z,-7.60
2019-04-11T04:52:58.271Z,-7.26
2019-04-11T04:55:26.410Z,-6.86
2019-04-11T05:00:45.637Z,-5.99
2019-04-11T05:05:44.309Z,-5.03
2019-04-11T05:08:11.226Z,-4.60
2019-04-11T05:10:38.152Z,-4.24
2019-04-11T05:13:05.843Z,-3.77
2019-04-11T05:15:34.550Z,-3.37
2019-04-11T05:18:02.139Z,-2.94
2019-04-11T05:20:28.411Z,-2.75
2019-04-11T05:25:52.824Z,-2.21
2019-04-11T05:28:41.554Z,-1.78
2019-04-11T05:31:08.358Z,-1.72
2019-04-11T05:36:28.327Z,-1.40
2019-04-11T05:39:20.021Z,-1.16
2019-04-11T05:41:48.702Z,-0.93
2019-04-11T05:44:30.571Z,-0.57
2019-04-11T05:47:27.636Z,-0.55
2019-04-11T05:52:44.077Z,0.44
2019-04-11T06:00:55.776Z,1.40
2019-04-11T06:03:23.933Z,1.76
2019-04-11T06:06:10.913Z,1.78
2019-04-11T06:08:37.842Z,2.20
2019-04-11T06:16:36.917Z,2.88
2019-04-11T06:19:15.037Z,3.24
2019-04-11T06:22:01.256Z,3.11
2019-04-11T06:24:48.202Z,2.70
2019-04-11T06:30:44.377Z,3.45
2019-04-11T06:33:30.749Z,3.78
2019-04-11T06:36:17.977Z,2.87
2019-04-11T06:39:05.157Z,2.44
2019-04-11T06:41:51.374Z,2.16
2019-04-11T06:44:37.710Z,2.28
2019-04-11T06:47:24.967Z,1.86
2019-04-11T06:50:11.396Z,2.15
2019-04-11T07:03:22.279Z,4.50
2019-04-11T07:05:42.699Z,4.56
2019-04-11T07:08:09.915Z,4.99
2019-04-11T07:13:43.581Z,4.57
2019-04-11T07:19:15.677Z,5.53
2019-04-11T07:21:42.132Z,5.48
2019-04-11T07:24:28.288Z,4.83
2019-04-11T07:30:03.134Z,5.89
2019-04-11T07:32:29.909Z,5.82
2019-04-11T07:35:17.446Z,5.29
2019-04-11T07:37:44.732Z,5.26
2019-04-11T07:43:12.818Z,3.96
2019-04-11T07:56:16.486Z,3.09
2019-04-11T08:01:59.375Z,3.47
2019-04-11T08:05:06.929Z,3.78
2019-04-11T08:07:52.956Z,3.81
2019-04-11T08:10:38.982Z,3.73
2019-04-11T08:13:26.239Z,3.88
2019-04-11T08:19:03.626Z,4.62
2019-04-11T08:21:50.414Z,4.75
2019-04-11T08:24:38.122Z,2.89
2019-04-11T08:27:25.246Z,4.36
2019-04-11T08:32:46.393Z,4.50
2019-04-11T08:35:34.507Z,4.38
2019-04-11T08:43:43.367Z,3.71
2019-04-11T08:49:26.648Z,4.16
2019-04-11T08:51:55.783Z,4.40
2019-04-11T08:57:10.334Z,3.83
2019-04-11T08:59:56.331Z,4.01
2019-04-11T09:05:18.803Z,4.36
2019-04-11T09:08:03.952Z,4.20
2019-04-11T09:10:50.738Z,4.41
2019-04-11T09:13:37.664Z,3.99
2019-04-11T09:16:23.766Z,4.27
2019-04-11T09:18:52.450Z,4.74
2019-04-11T09:21:40.403Z,4.92
2019-04-11T09:27:22.716Z,4.20
2019-04-11T09:30:12.770Z,4.42
2019-04-11T09:38:20.284Z,4.84
2019-04-11T09:41:06.285Z,4.99
2019-04-11T09:46:26.301Z,5.13
2019-04-11T09:52:00.430Z,5.10
2019-04-11T09:54:46.525Z,5.27
2019-04-11T09:57:32.562Z,5.47
2019-04-11T10:00:18.810Z,6.06
2019-04-11T10:03:04.808Z,5.61
2019-04-11T10:05:51.635Z,5.54
2019-04-11T10:11:26.151Z,5.14
2019-04-11T10:17:00.258Z,5.43
2019-04-11T10:22:34.150Z,5.78
2019-04-11T10:25:21.209Z,5.82
2019-04-11T10:28:07.279Z,5.92
2019-04-11T10:30:53.706Z,6.04
2019-04-11T10:33:39.798Z,6.12
2019-04-11T10:41:40.054Z,6.07
2019-04-11T10:44:07.576Z,5.89
2019-04-11T10:52:22.580Z,6.55
2019-04-11T10:55:09.424Z,6.52
2019-04-11T10:57:56.173Z,6.37
2019-04-11T11:00:43.179Z,6.87
2019-04-11T11:03:11.742Z,6.50
2019-04-11T11:05:57.779Z,6.12
2019-04-11T11:08:43.975Z,6.42
2019-04-11T11:11:30.463Z,6.38
2019-04-11T11:14:16.503Z,6.24
2019-04-11T11:17:02.503Z,6.25
2019-04-11T11:24:57.988Z,7.16
2019-04-11T11:30:18.764Z,6.68
2019-04-11T11:32:45.376Z,6.54
2019-04-11T11:35:34.944Z,7.16
2019-04-11T11:40:54.229Z,7.27
2019-04-11T11:43:41.240Z,6.60
2019-04-11T11:46:30.115Z,5.52
2019-04-11T11:51:49.868Z,6.98
2019-04-11T11:56:56.163Z,6.88
2019-04-11T11:59:42.865Z,6.42
2019-04-11T12:02:28.946Z,6.88
2019-04-11T12:05:16.789Z,6.76
2019-04-11T12:08:02.937Z,6.88
2019-04-11T12:13:24.207Z,7.19
2019-04-11T12:16:10.244Z,6.85
2019-04-11T12:21:48.560Z,6.48
2019-04-11T12:27:40.008Z,6.18
2019-04-11T12:30:30.857Z,6.42
2019-04-11T12:33:13.027Z,6.69
2019-04-11T12:38:46.632Z,7.16
2019-04-11T12:41:32.771Z,6.95
2019-04-11T12:44:19.066Z,6.75
2019-04-11T12:47:07.600Z,6.82
2019-04-11T12:49:53.520Z,6.55
2019-04-11T12:52:39.620Z,6.39
2019-04-11T12:55:48.389Z,6.53
2019-04-11T12:58:35.939Z,6.07
2019-04-11T13:01:22.141Z,6.00
2019-04-11T13:04:08.148Z,6.20
2019-04-11T13:06:54.154Z,6.18
2019-04-11T13:09:40.162Z,4.48
2019-04-11T13:12:26.163Z,5.79
2019-04-11T13:15:12.160Z,5.56
2019-04-11T13:17:58.165Z,5.43
2019-04-11T13:23:02.886Z,5.48
2019-04-11T13:25:48.899Z,5.22
2019-04-11T13:28:15.137Z,5.06
2019-04-11T13:31:01.441Z,4.30
2019-04-11T13:33:27.696Z,4.95
2019-04-11T13:36:13.752Z,4.87
2019-04-11T13:38:40.045Z,4.98
2019-04-11T13:46:33.857Z,5.14
2019-04-11T13:52:07.517Z,5.35
2019-04-11T13:54:53.539Z,5.14
2019-04-11T13:57:39.547Z,5.12
2019-04-11T14:03:20.916Z,5.16
2019-04-11T14:08:54.484Z,5.46
2019-04-11T14:17:12.040Z,5.21
2019-04-11T14:19:58.187Z,5.30
2019-04-11T14:22:44.199Z,5.40
2019-04-11T14:25:30.216Z,5.59
2019-04-11T14:31:22.270Z,5.73
2019-04-11T14:36:42.540Z,5.59
2019-04-11T14:42:42.155Z,5.39
2019-04-11T14:48:13.729Z,5.25
2019-04-11T14:50:59.729Z,4.81
2019-04-11T14:53:46.641Z,4.75
2019-04-11T14:59:23.954Z,4.70
2019-04-11T15:04:56.324Z,4.41
2019-04-11T15:07:22.680Z,4.42
2019-04-11T15:10:08.720Z,4.39
2019-04-11T15:15:28.819Z,4.06
2019-04-11T15:20:54.875Z,3.98
2019-04-11T15:26:10.652Z,3.97
2019-04-11T15:29:00.286Z,3.89
2019-04-11T15:31:46.271Z,3.78
2019-04-11T15:34:32.296Z,3.80
2019-04-11T15:37:18.313Z,3.68
2019-04-11T15:40:05.161Z,3.61
2019-04-11T15:42:51.165Z,3.56
2019-04-11T15:45:37.471Z,3.52
2019-04-11T15:51:14.148Z,3.40
2019-04-11T16:02:10.815Z,3.28
2019-04-11T16:04:57.046Z,3.24
2019-04-11T16:12:51.273Z,2.88
2019-04-11T16:15:37.271Z,2.80
2019-04-11T16:18:23.333Z,2.70
2019-04-11T16:23:51.308Z,2.59
2019-04-11T16:29:27.531Z,2.51
2019-04-11T16:35:01.598Z,2.38
2019-04-11T16:37:28.553Z,2.26
2019-04-11T16:40:15.381Z,2.17
2019-04-11T16:45:49.313Z,2.06
2019-04-11T16:48:15.569Z,2.03
2019-04-11T16:50:41.830Z,1.94
2019-04-11T16:53:10.585Z,1.88
2019-04-11T16:55:36.942Z,1.84
2019-04-11T16:58:04.617Z,1.80
2019-04-11T17:00:31.060Z,1.75
2019-04-11T17:02:57.620Z,1.69
2019-04-11T17:05:24.023Z,1.59
2019-04-11T17:08:12.901Z,1.48
2019-04-11T17:10:59.236Z,1.36
2019-04-11T17:13:47.032Z,1.25
2019-04-11T17:19:08.422Z,1.03
2019-04-11T17:21:42.993Z,0.90
2019-04-11T17:24:03.248Z,0.78
2019-04-11T17:26:29.509Z,0.66
2019-04-11T17:28:56.042Z,0.57
2019-04-11T17:34:12.358Z,0.36
2019-04-11T17:36:38.610Z,0.24
2019-04-11T17:39:26.431Z,0.11
2019-04-11T17:41:52.691Z,0.05
2019-04-11T17:44:19.154Z,-0.03
2019-04-11T17:46:45.415Z,-0.11
2019-04-11T17:49:11.660Z,-0.21
2019-04-11T17:54:44.583Z,-0.43
2019-04-11T17:57:10.825Z,-0.55
2019-04-11T17:59:37.081Z,-0.68
2019-04-11T18:04:50.950Z,-0.87
2019-04-11T18:07:17.762Z,-0.97
2019-04-11T18:12:18.211Z,-1.20
2019-04-11T18:14:44.490Z,-1.27
2019-04-11T18:17:10.760Z,-1.35
2019-04-11T18:19:37.013Z,-1.49
2019-04-11T18:30:54.050Z,-1.91
2019-04-11T18:33:20.247Z,-2.05
2019-04-11T18:36:06.362Z,-2.19
2019-04-11T18:38:32.743Z,-2.30
2019-04-11T18:40:59.000Z,-2.37
2019-04-11T18:43:25.583Z,-2.43
2019-04-11T18:45:53.415Z,-2.48
2019-04-11T18:48:19.657Z,-2.53
2019-04-11T18:50:45.944Z,-2.62
2019-04-11T18:53:12.183Z,-2.71
2019-04-11T18:55:38.458Z,-2.76
2019-04-11T18:58:04.972Z,-2.81
2019-04-11T19:00:31.275Z,-2.86
2019-04-11T19:02:57.527Z,-2.92
2019-04-11T19:05:28.786Z,-2.98
2019-04-11T19:07:51.946Z,-3.04
2019-04-11T19:10:18.317Z,-3.12
2019-04-11T19:12:46.416Z,-3.18
2019-04-11T19:18:18.658Z,-3.36
2019-04-11T19:20:44.982Z,-3.46
2019-04-11T19:23:11.413Z,-3.55
2019-04-11T19:25:40.034Z,-3.66
2019-04-11T19:28:05.899Z,-3.71
2019-04-11T19:30:32.162Z,-3.79
2019-04-11T19:32:58.954Z,-3.85
2019-04-11T19:35:25.248Z,-3.89
2019-04-11T19:37:51.515Z,-3.93
2019-04-11T19:40:17.897Z,-3.96
2019-04-11T19:42:44.179Z,-3.98
2019-04-11T19:45:10.535Z,-4.00
2019-04-11T19:47:36.789Z,-4.00
2019-04-11T19:50:26.723Z,-4.00
2019-04-11T19:52:52.803Z,-4.03
2019-04-11T19:55:38.785Z,-4.04
2019-04-11T19:58:05.063Z,-4.08
2019-04-11T20:00:31.321Z,-4.11
2019-04-11T20:02:57.617Z,-4.16
2019-04-11T20:05:23.895Z,-4.20
2019-04-11T20:07:50.167Z,-4.25
2019-04-11T20:10:16.428Z,-4.29
2019-04-11T20:12:42.727Z,-4.34
2019-04-11T20:15:08.979Z,-4.38
2019-04-11T20:17:44.065Z,-4.42
2019-04-11T20:23:10.523Z,-4.50
2019-04-11T20:25:33.919Z,-4.56
2019-04-11T20:28:00.380Z,-4.58
2019-04-11T20:30:26.710Z,-4.63
2019-04-11T20:32:52.974Z,-4.66
2019-04-11T20:35:28.443Z,-4.69
2019-04-11T20:37:47.422Z,-4.75
2019-04-11T20:40:17.437Z,-4.79
2019-04-11T20:42:41.847Z,-4.80
2019-04-11T20:45:08.201Z,-4.85
2019-04-11T20:47:34.466Z,-4.91
2019-04-11T20:50:07.371Z,-4.95
2019-04-11T20:52:28.912Z,-5.01
2019-04-11T20:54:55.207Z,-5.06
2019-04-11T20:57:26.008Z,-5.07
2019-04-11T21:02:35.977Z,-5.15
2019-04-11T21:05:02.261Z,-5.23
2019-04-11T21:07:31.621Z,-5.24
2019-04-11T21:12:37.272Z,-5.34
2019-04-11T21:17:40.053Z,-5.41
2019-04-11T21:20:06.632Z,-5.45
2019-04-11T21:22:32.883Z,-5.51
2019-04-11T21:24:59.639Z,-5.55
2019-04-11T21:27:28.899Z,-6.25
2019-04-11T21:29:59.777Z,-5.64
2019-04-11T21:32:23.721Z,-5.67
2019-04-11T21:34:49.997Z,-5.70
2019-04-11T21:37:16.255Z,-5.72
2019-04-11T21:39:42.530Z,-5.75
2019-04-11T21:42:09.478Z,-5.76
2019-04-11T21:44:36.952Z,-5.82
2019-04-11T21:47:23.091Z,-5.84
2019-04-11T21:50:11.697Z,-5.89
2019-04-11T21:52:37.965Z,-5.89
2019-04-11T21:58:05.031Z,-5.97
2019-04-11T22:01:12.601Z,-6.02
2019-04-11T22:03:38.984Z,-6.05
2019-04-11T22:06:05.234Z,-6.10
2019-04-11T22:08:32.005Z,-6.12
2019-04-11T22:10:59.644Z,-6.15
2019-04-11T22:13:25.950Z,-6.17
2019-04-11T22:16:33.541Z,-6.21
2019-04-11T22:21:53.881Z,-6.29
2019-04-11T22:24:20.128Z,-6.35
2019-04-11T22:26:50.156Z,-6.39
2019-04-11T22:29:34.317Z,-6.41
2019-04-11T22:32:00.771Z,-6.44
2019-04-11T22:34:46.807Z,-6.51
2019-04-11T22:37:13.085Z,-6.53
2019-04-11T22:39:39.336Z,-6.56
2019-04-11T22:42:05.649Z,-6.61
2019-04-11T22:44:31.858Z,-6.67
2019-04-11T22:46:58.132Z,-6.70
2019-04-11T22:49:44.164Z,-6.78
2019-04-11T22:52:30.164Z,-6.84
2019-04-11T22:54:56.597Z,-6.87
2019-04-11T22:57:22.855Z,-6.92
2019-04-11T23:00:08.865Z,-6.98
2019-04-11T23:02:54.890Z,-7.05
2019-04-11T23:05:21.195Z,-7.09
2019-04-11T23:07:48.462Z,-7.11
2019-04-11T23:10:17.069Z,-7.16
2019-04-11T23:17:51.217Z,-7.25
2019-04-11T23:20:17.838Z,-7.30
2019-04-11T23:22:44.124Z,-7.25
2019-04-11T23:25:10.476Z,-7.29
2019-04-11T23:27:36.722Z,-7.38
2019-04-11T23:33:01.343Z,-7.52
2019-04-11T23:35:27.630Z,-7.59
2019-04-11T23:37:53.890Z,-7.65
2019-04-11T23:40:21.008Z,-7.71
2019-04-11T23:45:51.205Z,-7.82
2019-04-11T23:48:17.313Z,-7.88
2019-04-11T23:50:43.680Z,-7.90
2019-04-11T23:53:09.925Z,-7.92
2019-04-11T23:55:36.190Z,-7.90
2019-04-11T23:58:02.532Z,-7.89
